Orense, Spain
Current Conditions -  °F | °C
As of 11:30 AM on Monday 22 Dec 2014 (Local Time) from LEVX Reporting Station
Light Fog Light Fog  
Wind Chill: 41°   Ceiling: 500
Heat Index: 41°   Visibility: 0.37mi
Dew Point: 41°   Wind: 1mph
Humidity: 100%   Direction: NA
Pressure: 30.45"   Gusts: NA
Location:  42.34°N, 7.86°W
Report Text: LEVX 221030Z VRB01KT 0600 R20/0800N R02/0700N PRFG BKN005 05/05 Q1031 NOSIG
Loading
Personal Weather Stations






























Interactive Weather Map New forecast layout! Learn more

10-Day Weather Forecast

Advertisements
Track Severe Weather on mobile